Time;durP1;ratioP1;P1;durP2;ratioP2;P2;SDS_P1;SDS_P2;PMS_P1;PMS_P2;Temp;Humidity;BMP_temperature;BMP_pressure;BME280_temperature;BME280_humidity;BME280_pressure;Samples;Min_cycle;Max_cycle;Signal;HPM_P1;HPM_P2
2022/11/18 00:01:28;;;;;;;0.10;0.10;;;8.30;85.80;;;;;;5036097;28;20033;-83
2022/11/18 00:03:53;;;;;;;1.33;0.20;;;8.30;85.80;;;;;;5035767;28;20022;-75
2022/11/18 00:06:21;;;;;;;0.10;0.10;;;8.30;85.90;;;;;;5035570;28;20029;-77
2022/11/18 00:08:47;;;;;;;0.17;0.10;;;8.30;86.00;;;;;;5035041;28;20467;-75
2022/11/18 00:14:17;;;;;;;0.65;0.20;;;8.40;86.80;;;;;;5035667;28;20152;-75
2022/11/18 00:14:19;;;;;;;0.20;0.10;;;8.40;85.90;;;;;;5035508;28;20026;-74
2022/11/18 00:16:50;;;;;;;0.57;0.20;;;8.50;86.00;;;;;;5035637;28;20062;-76
2022/11/18 00:19:16;;;;;;;0.20;0.20;;;8.60;86.60;;;;;;5035541;28;20034;-75
2022/11/18 00:21:42;;;;;;;0.20;0.10;;;8.60;85.70;;;;;;5035431;28;20022;-76
2022/11/18 00:24:08;;;;;;;0.35;0.17;;;8.60;85.70;;;;;;5035104;28;20403;-77
2022/11/18 00:26:34;;;;;;;0.57;0.25;;;8.60;85.80;;;;;;5035225;28;20076;-75
2022/11/18 00:29:00;;;;;;;1.27;0.20;;;8.60;86.00;;;;;;5017762;28;20371;-75
2022/11/18 00:31:26;;;;;;;0.20;0.20;;;8.60;86.10;;;;;;5035385;28;20032;-75
2022/11/18 00:33:51;;;;;;;0.82;0.28;;;8.70;86.20;;;;;;5035190;28;20025;-74
2022/11/18 00:36:17;;;;;;;0.28;0.20;;;8.70;86.20;;;;;;5035194;28;20465;-75
2022/11/18 00:38:42;;;;;;;0.63;0.38;;;8.70;86.20;;;;;;5035459;28;20025;-75
2022/11/18 00:41:11;;;;;;;0.20;0.20;;;8.70;86.20;;;;;;5035250;28;20040;-75
2022/11/18 00:43:37;;;;;;;0.40;0.28;;;8.80;86.20;;;;;;5035307;28;20450;-76
2022/11/18 00:46:05;;;;;;;0.70;0.35;;;8.80;86.00;;;;;;5035460;28;20025;-76
2022/11/18 00:48:31;;;;;;;0.17;0.17;;;8.90;85.90;;;;;;5035050;28;20109;-76
2022/11/18 00:51:04;;;;;;;1.85;0.40;;;8.80;85.80;;;;;;5035018;28;20100;-76
2022/11/18 00:53:30;;;;;;;0.60;0.30;;;8.90;86.00;;;;;;5034914;28;20049;-76
2022/11/18 00:55:55;;;;;;;0.40;0.32;;;8.80;86.00;;;;;;5034663;28;20056;-75
2022/11/18 00:58:21;;;;;;;0.55;0.30;;;8.90;86.20;;;;;;5034775;28;20112;-75
2022/11/18 01:00:50;;;;;;;1.50;0.20;;;8.90;86.40;;;;;;5034726;28;20034;-76
2022/11/18 01:03:17;;;;;;;0.40;0.30;;;8.90;86.60;;;;;;5034609;28;20026;-76
2022/11/18 01:05:43;;;;;;;0.30;0.30;;;8.90;87.40;;;;;;5034686;28;20033;-75
2022/11/18 01:08:09;;;;;;;0.65;0.30;;;9.00;86.60;;;;;;5016837;28;20025;-76
2022/11/18 01:10:36;;;;;;;0.43;0.28;;;9.00;86.60;;;;;;5034661;28;20032;-76
2022/11/18 01:13:18;;;;;;;0.77;0.43;;;9.10;86.50;;;;;;5034179;28;20025;-76
2022/11/18 01:15:54;;;;;;;0.50;0.30;;;9.10;86.40;;;;;;5034421;28;20478;-76
2022/11/18 01:18:26;;;;;;;1.40;0.35;;;9.10;86.40;;;;;;5034448;28;20057;-76
2022/11/18 01:20:51;;;;;;;1.83;0.20;;;9.10;86.40;;;;;;5033064;28;20379;-75
2022/11/18 01:23:18;;;;;;;1.75;0.60;;;9.20;86.30;;;;;;5034007;28;20061;-75
2022/11/18 01:25:46;;;;;;;1.52;0.50;;;9.20;86.50;;;;;;5034059;28;20024;-75
2022/11/18 01:28:12;;;;;;;4.00;0.52;;;8.90;87.40;;;;;;5034190;28;20091;-75
2022/11/18 01:30:40;;;;;;;2.60;0.88;;;8.80;87.80;;;;;;5034037;28;20378;-78
2022/11/18 01:33:07;;;;;;;2.28;1.00;;;8.80;87.70;;;;;;5033954;28;20021;-75
2022/11/18 01:35:38;;;;;;;0.82;0.57;;;8.80;87.80;;;;;;5033870;28;20441;-75
2022/11/18 01:38:04;;;;;;;2.17;0.70;;;8.80;87.80;;;;;;5015972;28;20375;-75
2022/11/18 01:40:30;;;;;;;4.00;0.77;;;8.70;87.70;;;;;;5025975;28;20079;-75
2022/11/18 01:42:56;;;;;;;3.17;0.85;;;8.60;88.00;;;;;;5033868;28;20048;-75
2022/11/18 01:45:34;;;;;;;1.08;0.55;;;8.60;88.00;;;;;;5033834;28;20021;-75
2022/11/18 01:48:11;;;;;;;2.13;0.50;;;8.60;88.00;;;;;;5033915;28;20107;-74
2022/11/18 01:50:42;;;;;;;4.95;0.63;;;8.60;88.10;;;;;;5033786;28;20029;-75
2022/11/18 01:53:13;;;;;;;0.30;0.30;;;8.70;88.30;;;;;;5033756;28;20018;-76
2022/11/18 01:55:42;;;;;;;1.02;0.43;;;8.80;88.20;;;;;;5033710;28;20068;-78
2022/11/18 01:58:25;;;;;;;1.08;0.20;;;8.80;87.80;;;;;;5033767;28;20097;-81
2022/11/18 02:00:52;;;;;;;0.90;0.43;;;8.80;87.40;;;;;;5033685;28;20031;-79
2022/11/18 02:03:18;;;;;;;0.60;0.20;;;8.80;87.20;;;;;;5033716;28;20029;-76
2022/11/18 02:05:46;;;;;;;0.40;0.20;;;8.90;87.00;;;;;;5033624;28;20036;-76
2022/11/18 02:08:13;;;;;;;0.77;0.35;;;9.00;87.00;;;;;;5033258;28;20017;-75
2022/11/18 02:10:39;;;;;;;0.20;0.20;;;8.90;86.90;;;;;;5033492;28;20032;-75
2022/11/18 02:13:06;;;;;;;1.08;0.38;;;8.90;86.50;;;;;;5033344;28;20104;-75
2022/11/18 02:16:00;;;;;;;3.65;0.60;;;8.90;86.50;;;;;;5033308;28;20452;-78
2022/11/18 02:18:35;;;;;;;1.70;0.60;;;9.00;86.60;;;;;;5030848;28;20045;-75
2022/11/18 02:21:39;;;;;;;0.47;0.40;;;9.00;86.50;;;;;;5033205;28;20489;-75
2022/11/18 02:24:42;;;;;;;0.82;0.40;;;9.00;86.20;;;;;;5029910;28;20096;-75
2022/11/18 02:27:10;;;;;;;0.73;0.30;;;9.00;86.00;;;;;;5033489;28;20026;-74
2022/11/18 02:30:02;;;;;;;0.43;0.30;;;8.90;85.90;;;;;;5032905;28;20466;-74
2022/11/18 02:32:35;;;;;;;0.75;0.43;;;8.90;85.80;;;;;;5029674;28;20497;-75
2022/11/18 02:35:17;;;;;;;0.60;0.30;;;8.90;86.30;;;;;;5033675;28;20021;-87
2022/11/18 02:37:49;;;;;;;0.88;0.30;;;8.70;85.80;;;;;;5033853;28;20056;-86
2022/11/18 02:40:18;;;;;;;0.60;0.30;;;8.70;86.10;;;;;;5033867;28;20022;-85
2022/11/18 02:42:50;;;;;;;0.20;0.15;;;8.70;85.80;;;;;;5033526;28;20093;-83
2022/11/18 02:45:17;;;;;;;0.90;0.30;;;8.70;86.00;;;;;;5033447;28;20103;-84
2022/11/18 02:47:45;;;;;;;1.50;0.50;;;8.60;85.90;;;;;;5033468;28;20025;-85
2022/11/18 02:50:16;;;;;;;2.78;0.25;;;8.50;86.40;;;;;;5033283;28;20033;-84
2022/11/18 02:52:44;;;;;;;1.98;0.30;;;8.50;85.90;;;;;;5033155;28;20052;-84
2022/11/18 02:55:13;;;;;;;3.17;0.20;;;8.50;86.10;;;;;;5033202;28;20030;-83
2022/11/18 02:57:41;;;;;;;1.00;0.25;;;8.60;85.90;;;;;;5015410;28;20036;-85
2022/11/18 03:00:07;;;;;;;0.45;0.10;;;8.50;85.80;;;;;;5033272;28;20018;-74
2022/11/18 03:02:45;;;;;;;0.50;0.20;;;8.60;85.70;;;;;;5032682;28;20045;-75
2022/11/18 03:05:29;;;;;;;0.00;0.00;;;8.60;85.60;;;;;;5032718;28;20017;-74
2022/11/18 03:08:02;;;;;;;0.20;0.10;;;8.60;85.50;;;;;;5032573;28;20021;-77
2022/11/18 03:10:34;;;;;;;0.70;0.40;;;8.60;87.00;;;;;;5032480;28;20091;-75
2022/11/18 03:13:16;;;;;;;1.38;0.40;;;8.60;85.90;;;;;;5032627;28;20026;-74
2022/11/18 03:15:55;;;;;;;1.25;0.60;;;8.50;85.80;;;;;;5032706;28;20040;-74
2022/11/18 03:18:32;;;;;;;0.73;0.30;;;8.50;86.10;;;;;;5032806;28;20076;-77
2022/11/18 03:21:06;;;;;;;0.38;0.20;;;8.60;86.10;;;;;;5032826;28;20028;-76
2022/11/18 03:23:40;;;;;;;1.75;0.38;;;8.60;86.10;;;;;;5032711;28;20049;-78
2022/11/18 03:26:31;;;;;;;1.52;0.20;;;8.70;86.40;;;;;;5032453;28;20029;-75
2022/11/18 03:29:03;;;;;;;0.30;0.20;;;8.50;86.30;;;;;;5024179;28;20038;-75
2022/11/18 03:31:33;;;;;;;0.13;0.00;;;8.50;86.70;;;;;;5033169;28;20014;-77
2022/11/18 03:34:08;;;;;;;0.55;0.10;;;8.50;87.00;;;;;;5032191;28;20135;-78
2022/11/18 03:36:39;;;;;;;0.63;0.10;;;8.40;87.50;;;;;;5032798;28;20028;-80
2022/11/18 03:39:07;;;;;;;0.90;0.32;;;8.30;87.80;;;;;;5032709;28;20532;-75
2022/11/18 03:41:38;;;;;;;0.65;0.30;;;8.30;87.40;;;;;;5032450;28;20073;-75
2022/11/18 03:44:10;;;;;;;0.40;0.00;;;8.20;87.60;;;;;;5034094;28;20394;-77
2022/11/18 03:46:42;;;;;;;0.20;0.00;;;8.00;87.80;;;;;;5036407;28;20029;-77
2022/11/18 03:49:14;;;;;;;0.10;0.10;;;8.00;87.80;;;;;;5036327;28;20025;-76
2022/11/18 03:51:44;;;;;;;0.03;0.03;;;8.00;88.10;;;;;;5036122;28;20026;-74
2022/11/18 03:54:14;;;;;;;0.10;0.10;;;8.00;88.30;;;;;;5036195;28;20113;-75
2022/11/18 03:56:49;;;;;;;0.20;0.20;;;8.00;87.60;;;;;;5037242;28;20025;-86
2022/11/18 03:59:21;;;;;;;1.10;0.10;;;8.10;87.70;;;;;;5038271;28;20422;-89
2022/11/18 04:02:04;;;;;;;0.50;0.20;;;8.10;87.20;;;;;;5020711;28;20040;-88
2022/11/18 04:04:30;;;;;;;0.32;0.10;;;8.10;87.30;;;;;;5036952;28;20021;-87
2022/11/18 04:07:04;;;;;;;1.38;0.20;;;8.10;87.40;;;;;;5037047;28;20095;-85
2022/11/18 04:09:36;;;;;;;0.55;0.25;;;8.20;87.20;;;;;;5018700;28;20025;-87
2022/11/18 04:12:06;;;;;;;1.55;0.38;;;8.10;86.20;;;;;;5036942;28;20029;-87
2022/11/18 04:14:37;;;;;;;0.65;0.20;;;8.10;85.70;;;;;;5029109;28;20117;-86
2022/11/18 04:17:15;;;;;;;0.28;0.22;;;8.10;85.70;;;;;;5037331;28;20470;-84
2022/11/18 04:19:41;;;;;;;0.20;0.10;;;8.10;84.50;;;;;;5036290;28;20024;-74
2022/11/18 04:22:07;;;;;;;0.10;0.05;;;7.90;84.50;;;;;;5035432;28;20029;-76
2022/11/18 04:24:33;;;;;;;1.15;0.13;;;7.90;84.80;;;;;;5035381;28;20517;-74
2022/11/18 04:26:59;;;;;;;0.95;0.20;;;8.00;84.90;;;;;;5035758;28;20025;-78
2022/11/18 04:29:24;;;;;;;0.32;0.20;;;8.00;84.00;;;;;;5035880;28;20029;-80
2022/11/18 04:31:50;;;;;;;0.88;0.30;;;8.10;84.40;;;;;;5035531;28;20486;-74
2022/11/18 04:34:15;;;;;;;0.30;0.30;;;8.10;84.30;;;;;;5035140;28;20030;-75
2022/11/18 04:36:41;;;;;;;1.65;0.20;;;8.10;84.60;;;;;;5035596;28;20040;-81
2022/11/18 04:39:07;;;;;;;2.15;0.25;;;8.20;84.50;;;;;;5036192;28;20028;-88
2022/11/18 04:44:16;;;;;;;0.85;0.20;;;8.20;84.40;;;;;;5035694;28;20032;-76
2022/11/18 04:46:43;;;;;;;2.10;0.13;;;8.20;84.40;;;;;;5035882;28;20398;-75
2022/11/18 04:49:11;;;;;;;0.63;0.40;;;8.30;84.80;;;;;;5036858;28;20103;-87
2022/11/18 04:51:37;;;;;;;0.60;0.10;;;8.30;84.60;;;;;;5036012;28;20109;-87
2022/11/18 04:54:03;;;;;;;0.95;0.43;;;8.30;84.90;;;;;;5036284;28;20057;-82
2022/11/18 04:56:29;;;;;;;0.63;0.30;;;8.30;84.80;;;;;;5039470;28;20033;-87
2022/11/18 04:58:54;;;;;;;0.40;0.15;;;8.30;84.70;;;;;;5044341;28;20036;-86
2022/11/18 05:01:20;;;;;;;0.20;0.13;;;8.30;85.00;;;;;;5041462;28;20029;-84
2022/11/18 05:03:46;;;;;;;0.85;0.20;;;8.20;83.80;;;;;;5035368;28;20022;-78
2022/11/18 05:06:11;;;;;;;1.23;0.10;;;8.10;84.30;;;;;;5034942;28;20021;-74
2022/11/18 05:08:37;;;;;;;0.10;0.10;;;8.10;84.70;;;;;;5017065;28;20082;-75
2022/11/18 05:13:52;;;;;;;0.90;0.50;;;8.20;84.90;;;;;;4994243;28;20121;-83
2022/11/18 05:16:18;;;;;;;1.95;0.82;;;8.20;83.10;;;;;;5034695;28;20030;-77
2022/11/18 05:18:44;;;;;;;0.45;0.30;;;8.10;83.40;;;;;;5034324;28;20156;-78
2022/11/18 05:21:10;;;;;;;0.20;0.20;;;7.90;83.50;;;;;;5034226;28;20030;-78
2022/11/18 05:23:35;;;;;;;0.43;0.30;;;7.90;84.10;;;;;;5033864;28;20053;-75
2022/11/18 05:26:09;;;;;;;5.30;0.80;;;7.90;84.50;;;;;;5034232;28;20018;-75
2022/11/18 05:28:35;;;;;;;0.80;0.20;;;7.70;85.80;;;;;;5034032;28;20027;-80
2022/11/18 05:31:06;;;;;;;0.65;0.10;;;7.70;85.70;;;;;;5034561;28;20025;-76
2022/11/18 05:33:31;;;;;;;1.05;0.20;;;7.70;86.70;;;;;;5033940;28;20033;-75
2022/11/18 05:36:01;;;;;;;0.10;0.10;;;7.60;86.30;;;;;;5033969;28;20025;-75
2022/11/18 05:38:26;;;;;;;1.58;0.10;;;7.70;86.20;;;;;;5016100;28;20048;-76
2022/11/18 05:40:52;;;;;;;1.75;0.22;;;7.70;86.00;;;;;;5034056;28;20032;-75
2022/11/18 05:43:17;;;;;;;1.10;0.20;;;7.80;85.90;;;;;;5034102;28;20030;-80
2022/11/18 05:45:43;;;;;;;0.65;0.52;;;7.70;85.70;;;;;;5034358;28;20504;-81
2022/11/18 05:48:09;;;;;;;0.22;0.13;;;7.90;85.50;;;;;;5034417;28;20070;-80
2022/11/18 05:50:36;;;;;;;1.60;0.47;;;7.80;85.50;;;;;;5035084;28;20033;-77
2022/11/18 05:53:03;;;;;;;2.85;1.58;;;7.90;84.70;;;;;;5035665;28;20519;-78
2022/11/18 05:55:36;;;;;;;3.85;1.60;;;7.90;85.00;;;;;;5026358;28;20075;-87
2022/11/18 05:58:01;;;;;;;4.03;2.10;;;7.90;84.90;;;;;;5029843;28;20029;-82
2022/11/18 06:00:28;;;;;;;2.30;1.52;;;8.00;84.80;;;;;;5033670;28;20028;-78
2022/11/18 06:02:55;;;;;;;2.05;1.48;;;7.90;84.60;;;;;;5033638;28;20499;-79
2022/11/18 06:05:23;;;;;;;1.40;0.93;;;8.00;84.20;;;;;;5033648;28;20049;-76
2022/11/18 06:07:48;;;;;;;1.30;0.88;;;8.10;83.80;;;;;;5033693;28;20037;-76
2022/11/18 06:10:26;;;;;;;3.10;1.77;;;8.00;83.70;;;;;;5035824;28;20018;-79
2022/11/18 06:12:57;;;;;;;3.50;1.90;;;8.00;83.80;;;;;;5036947;28;20028;-74
2022/11/18 06:15:37;;;;;;;2.22;1.30;;;7.90;84.00;;;;;;5038384;28;20033;-84
2022/11/18 06:18:20;;;;;;;2.35;1.40;;;8.00;84.00;;;;;;5039500;28;20489;-81
2022/11/18 06:20:46;;;;;;;2.03;1.40;;;8.00;84.20;;;;;;5041927;28;20026;-82
2022/11/18 06:23:12;;;;;;;1.90;1.10;;;8.10;84.30;;;;;;5040652;28;20121;-81
2022/11/18 06:25:40;;;;;;;1.30;0.95;;;8.20;83.00;;;;;;5038056;28;20070;-79
2022/11/18 06:28:06;;;;;;;1.60;0.85;;;8.10;82.30;;;;;;5034356;28;20039;-82
2022/11/18 06:30:31;;;;;;;1.77;1.20;;;8.20;82.80;;;;;;5034166;28;20216;-78
2022/11/18 06:32:57;;;;;;;2.40;1.00;;;8.30;83.40;;;;;;5034357;28;20129;-76
2022/11/18 06:35:22;;;;;;;1.85;1.20;;;8.40;83.60;;;;;;5034333;28;20036;-79
2022/11/18 06:37:48;;;;;;;2.50;1.80;;;8.50;83.60;;;;;;5034320;28;20029;-75
2022/11/18 06:40:14;;;;;;;3.40;1.60;;;8.40;84.00;;;;;;5034201;28;20033;-75
2022/11/18 06:45:23;;;;;;;3.22;1.58;;;8.30;82.80;;;;;;5034271;28;20046;-75
2022/11/18 06:47:49;;;;;;;1.80;1.00;;;8.20;81.90;;;;;;5033639;28;20479;-74
2022/11/18 06:50:15;;;;;;;6.20;1.67;;;8.20;82.70;;;;;;5032619;28;20033;-76
2022/11/18 06:52:40;;;;;;;5.32;1.38;;;8.50;88.30;;;;;;5014967;28;20025;-80
2022/11/18 06:55:07;;;;;;;2.00;0.98;;;9.00;90.50;;;;;;5032924;28;20021;-78
2022/11/18 06:57:33;;;;;;;3.05;1.05;;;9.20;86.50;;;;;;5033102;28;20021;-75
2022/11/18 06:59:59;;;;;;;2.85;0.82;;;9.50;85.00;;;;;;5032457;28;20382;-77
2022/11/18 07:02:24;;;;;;;3.60;0.93;;;9.70;85.40;;;;;;5015163;28;20037;-79
2022/11/18 07:04:50;;;;;;;1.15;0.70;;;9.90;82.70;;;;;;5032785;28;20113;-76
2022/11/18 07:07:16;;;;;;;2.40;0.80;;;10.10;81.90;;;;;;5014752;28;20099;-74
2022/11/18 07:09:41;;;;;;;3.83;1.70;;;10.20;79.90;;;;;;5033236;28;20022;-80
2022/11/18 07:12:07;;;;;;;4.68;1.88;;;10.30;79.60;;;;;;5016781;28;20116;-78
2022/11/18 07:14:32;;;;;;;1.88;1.20;;;10.40;79.00;;;;;;5033131;28;20021;-82
2022/11/18 07:16:58;;;;;;;1.48;0.77;;;10.60;78.40;;;;;;5033233;28;20068;-84
2022/11/18 07:19:23;;;;;;;3.75;0.70;;;10.70;77.90;;;;;;5035353;28;20119;-82
2022/11/18 07:21:49;;;;;;;1.23;0.55;;;10.70;77.10;;;;;;5036824;28;20037;-82
2022/11/18 07:24:15;;;;;;;3.03;0.63;;;10.70;76.60;;;;;;5036727;28;20057;-87
2022/11/18 07:26:42;;;;;;;2.05;0.80;;;10.70;76.40;;;;;;5037916;28;20025;-75
2022/11/18 07:29:08;;;;;;;3.85;0.60;;;10.70;76.40;;;;;;5039085;28;20025;-75
2022/11/18 07:31:36;;;;;;;3.13;1.00;;;10.70;76.10;;;;;;5039681;28;20092;-78
2022/11/18 07:34:02;;;;;;;2.88;1.63;;;10.70;75.60;;;;;;5036445;28;20419;-83
2022/11/18 07:36:28;;;;;;;3.58;1.48;;;10.50;74.60;;;;;;5036015;28;20033;-83
2022/11/18 07:38:56;;;;;;;1.67;1.20;;;10.20;75.20;;;;;;5036315;28;20374;-83
2022/11/18 07:41:25;;;;;;;2.45;1.13;;;10.10;75.90;;;;;;5018573;28;20029;-79
2022/11/18 07:43:52;;;;;;;1.15;0.70;;;9.90;76.30;;;;;;5018691;28;20048;-80
2022/11/18 07:46:18;;;;;;;3.92;0.60;;;9.70;76.80;;;;;;5036644;28;20083;-83
2022/11/18 07:48:45;;;;;;;0.82;0.47;;;9.50;77.20;;;;;;5018622;28;20503;-82
2022/11/18 07:51:12;;;;;;;0.95;0.65;;;9.40;77.90;;;;;;5018183;28;20063;-82
2022/11/18 07:53:37;;;;;;;2.13;0.70;;;9.40;78.60;;;;;;5036077;28;20104;-82
2022/11/18 07:56:04;;;;;;;1.52;1.08;;;9.40;79.10;;;;;;5036305;28;20431;-79
2022/11/18 07:58:30;;;;;;;2.28;0.77;;;9.30;79.60;;;;;;5028792;28;20025;-83
2022/11/18 08:00:55;;;;;;;1.98;1.10;;;9.30;79.20;;;;;;5019191;28;20410;-83
2022/11/18 08:03:27;;;;;;;3.22;1.25;;;9.20;79.30;;;;;;5037396;28;20213;-81
2022/11/18 08:05:59;;;;;;;2.10;1.77;;;9.10;80.70;;;;;;5035582;28;20026;-75
2022/11/18 08:08:24;;;;;;;2.83;0.82;;;9.10;80.40;;;;;;5036160;28;20029;-79
2022/11/18 08:10:50;;;;;;;1.27;1.17;;;8.90;78.70;;;;;;5036683;28;20028;-81
2022/11/18 08:13:15;;;;;;;2.95;1.40;;;8.70;80.30;;;;;;5036124;28;20101;-80
2022/11/18 08:15:42;;;;;;;2.00;1.10;;;8.60;80.60;;;;;;5035902;28;20057;-78
2022/11/18 08:18:08;;;;;;;0.82;0.80;;;8.60;81.70;;;;;;5035976;28;20492;-76
2022/11/18 08:20:36;;;;;;;2.25;0.70;;;8.40;82.10;;;;;;5035977;28;20112;-76
2022/11/18 08:23:02;;;;;;;0.88;0.47;;;8.50;81.90;;;;;;5036067;28;20058;-84
2022/11/18 08:25:28;;;;;;;0.82;0.50;;;8.50;81.90;;;;;;5018804;28;20074;-76
2022/11/18 08:27:54;;;;;;;2.05;0.73;;;8.60;81.80;;;;;;5018308;28;20112;-76
2022/11/18 08:30:19;;;;;;;2.97;1.88;;;8.70;82.10;;;;;;5036175;28;20059;-76
2022/11/18 08:32:45;;;;;;;4.53;2.63;;;8.70;82.10;;;;;;5018086;28;20072;-81
2022/11/18 08:35:10;;;;;;;1.73;0.70;;;8.70;81.40;;;;;;5035847;28;20030;-76
2022/11/18 08:37:36;;;;;;;1.90;0.80;;;8.60;82.70;;;;;;5018230;28;20056;-79
2022/11/18 08:40:03;;;;;;;0.75;0.40;;;8.50;83.70;;;;;;5035355;28;20485;-78
2022/11/18 08:42:28;;;;;;;2.25;0.60;;;8.50;82.50;;;;;;5017508;28;20402;-82
2022/11/18 08:44:54;;;;;;;1.92;0.70;;;8.40;81.90;;;;;;5035354;28;20026;-79
2022/11/18 08:47:20;;;;;;;1.13;0.70;;;8.50;82.30;;;;;;5034802;28;20033;-81
2022/11/18 08:49:46;;;;;;;1.60;0.73;;;8.50;83.00;;;;;;5034885;28;20017;-76
2022/11/18 08:52:12;;;;;;;1.02;0.47;;;8.50;82.20;;;;;;5034903;28;20382;-77
2022/11/18 08:54:37;;;;;;;1.33;0.45;;;8.50;81.80;;;;;;5034703;28;20026;-76
2022/11/18 08:57:03;;;;;;;0.63;0.20;;;8.30;82.20;;;;;;5034898;28;20109;-75
2022/11/18 08:59:29;;;;;;;0.80;0.20;;;8.30;83.00;;;;;;5008816;28;20033;-75
2022/11/18 09:01:54;;;;;;;0.52;0.40;;;8.20;84.00;;;;;;5034219;28;20087;-75
2022/11/18 09:04:20;;;;;;;2.60;0.60;;;8.20;83.40;;;;;;5034429;28;20037;-75
2022/11/18 09:06:45;;;;;;;3.92;0.47;;;8.30;84.20;;;;;;5034284;28;20108;-77
2022/11/18 09:09:11;;;;;;;3.08;1.27;;;8.30;83.00;;;;;;5034226;28;20422;-79
2022/11/18 09:11:38;;;;;;;0.43;0.43;;;8.20;84.10;;;;;;5034138;28;20029;-76
2022/11/18 09:14:04;;;;;;;1.58;0.70;;;8.30;84.30;;;;;;5016511;28;20037;-76
2022/11/18 09:16:31;;;;;;;1.13;0.68;;;8.30;84.00;;;;;;5034594;28;20413;-82
2022/11/18 09:18:58;;;;;;;2.05;0.65;;;8.40;84.60;;;;;;5034002;28;20049;-82
2022/11/18 09:21:25;;;;;;;0.70;0.45;;;8.40;84.10;;;;;;5033930;28;20378;-79
2022/11/18 09:23:51;;;;;;;0.88;0.45;;;8.50;84.30;;;;;;5034063;28;20052;-82
2022/11/18 09:26:25;;;;;;;2.08;0.65;;;8.60;83.40;;;;;;5034354;28;20076;-82
2022/11/18 09:28:54;;;;;;;2.83;0.75;;;8.50;83.50;;;;;;5034304;28;20053;-80
2022/11/18 09:31:20;;;;;;;2.38;1.00;;;8.50;84.30;;;;;;5016300;28;20032;-83
2022/11/18 09:33:46;;;;;;;5.82;3.25;;;8.60;84.30;;;;;;5033981;28;20024;-82
2022/11/18 09:36:14;;;;;;;2.28;1.00;;;8.60;84.30;;;;;;5034157;28;20437;-82
2022/11/18 09:38:40;;;;;;;3.30;1.27;;;8.70;83.90;;;;;;5034570;28;20025;-84
2022/11/18 09:41:14;;;;;;;1.63;0.40;;;8.80;83.10;;;;;;5034306;28;20026;-83
2022/11/18 09:44:11;;;;;;;1.23;1.05;;;8.70;83.50;;;;;;5018774;28;20486;-84
2022/11/18 09:47:07;;;;;;;1.00;0.70;;;8.70;83.10;;;;;;5036695;28;20023;-80
2022/11/18 09:49:36;;;;;;;0.70;0.68;;;8.80;82.70;;;;;;5040578;28;20485;-82
2022/11/18 09:52:08;;;;;;;0.80;0.47;;;8.90;82.30;;;;;;5033776;28;20028;-82
2022/11/18 09:54:35;;;;;;;1.58;0.70;;;8.90;82.50;;;;;;5015829;28;20481;-83
2022/11/18 09:57:01;;;;;;;0.40;0.40;;;8.90;82.10;;;;;;5033416;28;20033;-82
2022/11/18 09:59:30;;;;;;;1.73;0.50;;;8.90;82.30;;;;;;5033268;28;20492;-77
2022/11/18 10:02:28;;;;;;;0.70;0.60;;;8.90;82.50;;;;;;5033504;28;20029;-84
2022/11/18 10:05:01;;;;;;;0.20;0.20;;;8.90;81.80;;;;;;5009729;28;20041;-83
2022/11/18 10:07:42;;;;;;;0.60;0.20;;;8.90;80.70;;;;;;5016002;28;20474;-85
2022/11/18 10:10:20;;;;;;;0.77;0.32;;;8.90;80.60;;;;;;5033565;28;20025;-84
2022/11/18 10:12:55;;;;;;;0.20;0.10;;;8.90;81.40;;;;;;5016459;28;20025;-81
2022/11/18 10:15:25;;;;;;;;;;;8.80;81.90;;;;;;5033793;28;20433;-85
2022/11/18 10:18:00;;;;;;;1.27;0.30;;;8.80;81.60;;;;;;5033235;28;19996;-82
2022/11/18 10:20:31;;;;;;;0.20;0.17;;;8.70;81.40;;;;;;5033263;28;20052;-82
2022/11/18 10:23:15;;;;;;;0.32;0.20;;;8.80;80.90;;;;;;5032937;28;20033;-83
2022/11/18 10:25:41;;;;;;;0.30;0.20;;;8.80;80.80;;;;;;5033128;28;20037;-83
2022/11/18 10:28:20;;;;;;;1.05;0.20;;;8.80;80.70;;;;;;5032974;28;20029;-83
2022/11/18 10:30:45;;;;;;;0.22;0.10;;;8.70;81.70;;;;;;5033215;28;20031;-81
2022/11/18 10:33:24;;;;;;;1.38;0.40;;;8.60;82.50;;;;;;5033434;28;20034;-84
2022/11/18 10:36:09;;;;;;;7.20;4.25;;;8.60;82.20;;;;;;5015342;28;20116;-82
2022/11/18 10:38:35;;;;;;;3.10;1.90;;;8.60;83.70;;;;;;5033134;28;20028;-84
2022/11/18 10:41:04;;;;;;;2.80;1.10;;;8.60;83.10;;;;;;5015211;28;20013;-84
2022/11/18 10:43:55;;;;;;;0.43;0.30;;;8.70;82.60;;;;;;5032619;28;20096;-84
2022/11/18 10:46:26;;;;;;;1.05;0.50;;;8.70;82.10;;;;;;5032472;28;20028;-83
2022/11/18 10:49:15;;;;;;;0.88;0.50;;;8.60;82.80;;;;;;5014929;28;20496;-85
2022/11/18 10:51:45;;;;;;;0.70;0.40;;;8.60;83.60;;;;;;5008171;28;20147;-84
2022/11/18 10:54:20;;;;;;;0.70;0.50;;;8.60;83.00;;;;;;5032073;28;20115;-77
2022/11/18 10:56:51;;;;;;;0.57;0.40;;;8.70;83.20;;;;;;5032358;28;20382;-76
2022/11/18 10:59:27;;;;;;;1.98;1.45;;;8.70;82.90;;;;;;5032484;28;20025;-76
2022/11/18 11:02:17;;;;;;;2.70;1.52;;;8.80;83.10;;;;;;5032006;28;20431;-75
2022/11/18 11:04:45;;;;;;;3.88;1.95;;;8.90;82.60;;;;;;5025281;28;20072;-74
2022/11/18 11:07:30;;;;;;;5.93;2.83;;;9.10;81.60;;;;;;5032022;28;20029;-75
2022/11/18 11:10:03;;;;;;;1.50;0.50;;;9.30;81.40;;;;;;5014011;28;20017;-74
2022/11/18 11:12:32;;;;;;;0.73;0.30;;;9.40;79.10;;;;;;5032388;28;20124;-74
2022/11/18 11:15:15;;;;;;;1.42;0.73;;;9.40;78.30;;;;;;5031775;28;20022;-74
2022/11/18 11:18:40;;;;;;;0.88;0.30;;;9.20;79.10;;;;;;5032333;28;20378;-74
2022/11/18 11:20:35;;;;;;;0.40;0.20;;;9.30;78.80;;;;;;5032011;28;20113;-76
2022/11/18 11:23:06;;;;;;;0.63;0.40;;;9.20;78.70;;;;;;5031690;28;20025;-75
2022/11/18 11:25:50;;;;;;;0.88;0.40;;;9.10;78.00;;;;;;5032088;28;20508;-75
2022/11/18 11:28:19;;;;;;;0.50;0.50;;;9.00;78.10;;;;;;5032295;28;20112;-75
2022/11/18 11:30:55;;;;;;;1.35;0.50;;;8.80;79.90;;;;;;5032291;28;20026;-75
2022/11/18 11:33:33;;;;;;;1.85;0.95;;;9.00;79.50;;;;;;5032177;28;20414;-76
2022/11/18 11:36:22;;;;;;;1.58;0.75;;;9.00;78.80;;;;;;5031708;28;20031;-77
2022/11/18 11:38:59;;;;;;;2.60;0.70;;;9.00;78.40;;;;;;5020807;28;20040;-75
2022/11/18 11:41:53;;;;;;;4.82;1.65;;;9.00;78.00;;;;;;5031894;28;20112;-78
2022/11/18 11:44:50;;;;;;;3.15;1.52;;;8.90;79.60;;;;;;5032164;28;20029;-76
2022/11/18 11:47:46;;;;;;;2.40;0.30;;;8.90;79.90;;;;;;5025901;28;20381;-81
2022/11/18 11:50:52;;;;;;;0.35;0.30;;;9.00;78.90;;;;;;5014355;28;20029;-83
2022/11/18 11:53:24;;;;;;;0.95;0.63;;;9.20;78.40;;;;;;5030178;28;20040;-75
2022/11/18 11:55:52;;;;;;;1.25;0.63;;;9.40;77.80;;;;;;5031896;28;20026;-91
2022/11/18 11:59:03;;;;;;;1.00;0.50;;;9.50;77.00;;;;;;5032844;28;20110;-78
2022/11/18 12:01:58;;;;;;;3.72;0.70;;;9.40;77.20;;;;;;5020708;28;20167;-75
2022/11/18 12:04:44;;;;;;;1.53;0.40;;;9.40;77.00;;;;;;5032491;28;20029;-77
2022/11/18 12:07:39;;;;;;;2.17;0.45;;;9.30;77.30;;;;;;5018841;28;20429;-77
2022/11/18 12:10:20;;;;;;;2.90;1.00;;;9.50;76.00;;;;;;5034329;28;20033;-76
2022/11/18 12:12:57;;;;;;;2.47;0.77;;;9.60;74.30;;;;;;5035013;28;20095;-76
2022/11/18 12:15:43;;;;;;;2.95;0.60;;;9.80;73.30;;;;;;5035248;28;20125;-76
2022/11/18 12:18:23;;;;;;;1.35;0.52;;;9.90;72.10;;;;;;5035442;28;20386;-76
2022/11/18 12:20:51;;;;;;;3.00;0.50;;;10.10;71.10;;;;;;5035618;28;20033;-84
2022/11/18 12:23:25;;;;;;;1.15;0.50;;;10.30;70.40;;;;;;5035467;28;20483;-84
2022/11/18 12:26:01;;;;;;;2.47;0.88;;;11.40;67.30;;;;;;5035505;28;20070;-81
2022/11/18 12:28:26;;;;;;;2.17;0.65;;;11.90;63.70;;;;;;5020747;28;20482;-79
2022/11/18 12:31:17;;;;;;;1.27;0.40;;;11.90;63.30;;;;;;5041279;28;20105;-83
2022/11/18 12:33:52;;;;;;;1.33;0.75;;;11.70;64.80;;;;;;5039547;28;20037;-84
2022/11/18 12:36:35;;;;;;;2.42;0.50;;;11.90;64.40;;;;;;5040185;28;20432;-79
2022/11/18 12:39:22;;;;;;;2.25;0.50;;;12.50;61.80;;;;;;5055341;28;20021;-82
2022/11/18 12:44:47;;;;;;;0.85;0.52;;;15.70;49.20;;;;;;5055327;28;20036;-81
2022/11/18 12:47:42;;;;;;;1.58;0.52;;;18.10;41.90;;;;;;5054982;28;20025;-79
2022/11/18 12:50:14;;;;;;;1.17;0.30;;;20.50;35.90;;;;;;5049954;28;20044;-80
2022/11/18 12:52:40;;;;;;;1.35;0.40;;;21.40;31.40;;;;;;5056369;28;20456;-78
2022/11/18 12:55:20;;;;;;;2.47;0.57;;;20.70;32.50;;;;;;5057446;28;20029;-77
2022/11/18 12:57:46;;;;;;;0.82;0.38;;;19.40;33.50;;;;;;5055110;28;20112;-73
2022/11/18 13:00:51;;;;;;;2.40;0.52;;;18.60;35.90;;;;;;5054694;28;20482;-74
2022/11/18 13:03:23;;;;;;;2.28;0.45;;;17.60;37.20;;;;;;5037493;28;20029;-76
2022/11/18 13:05:56;;;;;;;2.20;0.60;;;15.10;44.30;;;;;;5055599;28;20028;-76
2022/11/18 13:08:23;;;;;;;0.85;0.60;;;13.90;48.10;;;;;;5054793;28;20028;-84
2022/11/18 13:13:40;;;;;;;2.47;0.38;;;12.00;58.90;;;;;;5054929;28;20570;-77
2022/11/18 13:19:23;;;;;;;2.88;0.88;;;11.00;62.60;;;;;;5054668;28;20031;-84
2022/11/18 13:24:59;;;;;;;2.05;0.57;;;10.20;68.00;;;;;;5054444;28;20060;-76
2022/11/18 13:27:34;;;;;;;1.95;0.50;;;10.00;68.30;;;;;;5055023;28;20043;-80
2022/11/18 13:30:10;;;;;;;3.33;1.02;;;9.60;69.70;;;;;;5054544;28;20021;-78
2022/11/18 13:32:42;;;;;;;2.85;0.50;;;9.60;70.50;;;;;;5054504;28;20025;-77
2022/11/18 13:35:19;;;;;;;1.95;0.80;;;9.60;71.10;;;;;;5054266;28;20131;-81
2022/11/18 13:37:56;;;;;;;2.13;0.60;;;9.60;71.20;;;;;;5054390;28;20017;-79